createdAt,value
2018-01-20T00:01:37.525Z,4.90
2018-01-20T00:04:06.946Z,4.90
2018-01-20T00:06:37.131Z,4.90
2018-01-20T00:09:06.555Z,4.90
2018-01-20T00:11:48.491Z,5.00
2018-01-20T00:14:17.952Z,5.00
2018-01-20T00:16:47.350Z,5.10
2018-01-20T00:19:16.744Z,5.10
2018-01-20T00:21:46.134Z,5.10
2018-01-20T00:24:15.589Z,5.10
2018-01-20T00:26:44.987Z,5.10
2018-01-20T00:29:15.194Z,5.10
2018-01-20T00:31:44.606Z,5.10
2018-01-20T00:34:14.000Z,5.20
2018-01-20T00:36:43.395Z,5.20
2018-01-20T00:39:12.810Z,5.20
2018-01-20T00:41:42.993Z,5.20
2018-01-20T00:44:12.346Z,5.20
2018-01-20T00:46:42.511Z,5.10
2018-01-20T00:49:11.946Z,5.10
2018-01-20T00:51:41.458Z,5.10
2018-01-20T00:54:10.988Z,5.10
2018-01-20T00:56:41.125Z,5.10
2018-01-20T00:59:10.528Z,5.10
2018-01-20T01:01:39.923Z,5.20
2018-01-20T01:04:09.323Z,5.20
2018-01-20T01:06:38.697Z,5.20
2018-01-20T01:09:08.086Z,5.20
2018-01-20T01:11:37.505Z,5.30
2018-01-20T01:14:06.912Z,5.20
2018-01-20T01:16:36.330Z,5.20
2018-01-20T01:19:05.850Z,5.20
2018-01-20T01:21:35.267Z,5.20
2018-01-20T01:24:05.440Z,5.20
2018-01-20T01:26:34.878Z,5.20
2018-01-20T01:29:04.290Z,5.20
2018-01-20T01:31:33.668Z,5.10
2018-01-20T01:34:03.106Z,5.10
2018-01-20T01:36:32.541Z,5.20
2018-01-20T01:39:01.966Z,5.10
2018-01-20T01:41:32.134Z,5.00
2018-01-20T01:44:01.555Z,5.00
2018-01-20T01:46:30.998Z,5.00
2018-01-20T01:49:01.213Z,5.00
2018-01-20T01:51:30.603Z,5.00
2018-01-20T01:54:00.012Z,5.00
2018-01-20T01:56:29.455Z,5.10
2018-01-20T01:58:58.851Z,5.10
2018-01-20T02:01:28.265Z,5.10
2018-01-20T02:03:58.341Z,5.00
2018-01-20T02:06:27.973Z,5.00
2018-01-20T02:08:57.353Z,4.90
2018-01-20T02:11:26.778Z,4.90
2018-01-20T02:13:57.016Z,4.90
2018-01-20T02:16:26.487Z,4.70
2018-01-20T02:18:55.891Z,4.80
2018-01-20T02:21:26.126Z,4.80
2018-01-20T02:23:56.298Z,4.80
2018-01-20T02:26:25.713Z,4.80
2018-01-20T02:28:55.130Z,4.80
2018-01-20T02:31:24.661Z,4.80
2018-01-20T02:33:54.079Z,4.90
2018-01-20T02:36:23.489Z,4.90
2018-01-20T02:38:52.902Z,4.80
2018-01-20T02:41:22.306Z,4.80
2018-01-20T02:43:51.761Z,4.70
2018-01-20T02:46:21.973Z,4.70
2018-01-20T02:48:51.379Z,4.60
2018-01-20T02:51:21.516Z,4.60
2018-01-20T02:53:51.669Z,4.50
2018-01-20T02:56:21.115Z,4.50
2018-01-20T02:58:50.501Z,4.50
2018-01-20T03:01:19.940Z,4.60
2018-01-20T03:03:49.366Z,4.60
2018-01-20T03:06:18.751Z,4.60
2018-01-20T03:08:48.926Z,4.50
2018-01-20T03:11:18.327Z,4.50
2018-01-20T03:13:47.734Z,4.50
2018-01-20T03:16:17.141Z,4.50
2018-01-20T03:18:46.524Z,4.40
2018-01-20T03:21:15.908Z,4.20
2018-01-20T03:23:45.333Z,4.10
2018-01-20T03:26:14.764Z,4.00
2018-01-20T03:28:44.163Z,4.10
2018-01-20T03:31:13.567Z,4.10
2018-01-20T03:33:42.961Z,4.00
2018-01-20T03:36:12.328Z,4.00
2018-01-20T03:38:41.753Z,4.10
2018-01-20T03:41:11.166Z,4.10
2018-01-20T03:43:40.593Z,4.10
2018-01-20T03:46:10.032Z,4.20
2018-01-20T03:48:39.386Z,4.20
2018-01-20T03:51:08.829Z,4.20
2018-01-20T03:53:38.997Z,4.20
2018-01-20T03:56:08.469Z,4.20
2018-01-20T03:58:37.857Z,4.20
2018-01-20T04:01:07.236Z,4.30
2018-01-20T04:03:37.441Z,4.30
2018-01-20T04:06:06.844Z,4.30
2018-01-20T04:08:36.298Z,4.30
2018-01-20T04:11:05.672Z,4.40
2018-01-20T04:13:35.879Z,4.30
2018-01-20T04:16:05.280Z,4.30
2018-01-20T04:18:34.693Z,4.30
2018-01-20T04:21:04.219Z,4.30
2018-01-20T04:23:34.379Z,4.40
2018-01-20T04:26:03.767Z,4.30
2018-01-20T04:28:33.152Z,4.40
2018-01-20T04:31:02.537Z,4.30
2018-01-20T04:33:32.652Z,4.40
2018-01-20T04:36:02.065Z,4.40
2018-01-20T04:38:32.202Z,4.30
2018-01-20T04:41:01.602Z,4.30
2018-01-20T04:43:31.003Z,4.30
2018-01-20T04:46:00.379Z,4.30
2018-01-20T04:48:29.776Z,4.30
2018-01-20T04:50:59.153Z,4.20
2018-01-20T04:53:28.515Z,4.30
2018-01-20T04:55:57.881Z,4.40
2018-01-20T04:58:27.294Z,4.40
2018-01-20T05:00:57.452Z,4.50
2018-01-20T05:03:26.886Z,4.50
2018-01-20T05:05:56.272Z,4.40
2018-01-20T05:08:25.681Z,4.50
2018-01-20T05:10:55.830Z,4.60
2018-01-20T05:13:25.228Z,4.60
2018-01-20T05:15:54.625Z,4.50
2018-01-20T05:18:24.004Z,4.50
2018-01-20T05:20:53.424Z,4.30
2018-01-20T05:23:22.827Z,4.30
2018-01-20T05:25:52.991Z,4.30
2018-01-20T05:28:22.376Z,4.30
2018-01-20T05:30:51.757Z,4.30
2018-01-20T05:33:21.159Z,4.30
2018-01-20T05:35:50.545Z,4.30
2018-01-20T05:38:19.916Z,4.30
2018-01-20T05:40:50.240Z,4.40
2018-01-20T05:43:19.633Z,4.40
2018-01-20T05:45:49.011Z,4.30
2018-01-20T05:48:19.422Z,4.40
2018-01-20T05:50:48.902Z,4.40
2018-01-20T05:53:18.325Z,4.40
2018-01-20T05:55:47.923Z,4.40
2018-01-20T05:58:18.997Z,4.50
2018-01-20T06:00:48.363Z,4.50
2018-01-20T06:03:17.749Z,4.50
2018-01-20T06:05:47.124Z,4.40
2018-01-20T06:08:16.516Z,4.50
2018-01-20T06:10:46.655Z,4.70
2018-01-20T06:13:16.034Z,4.60
2018-01-20T06:15:46.180Z,4.70
2018-01-20T06:18:15.538Z,4.80
2018-01-20T06:20:44.918Z,4.80
2018-01-20T06:23:14.283Z,4.80
2018-01-20T06:25:43.689Z,4.80
2018-01-20T06:28:13.078Z,4.90
2018-01-20T06:30:42.508Z,4.70
2018-01-20T06:33:11.866Z,4.80
2018-01-20T06:35:41.331Z,4.90
2018-01-20T06:38:10.688Z,4.90
2018-01-20T06:40:40.056Z,4.90
2018-01-20T06:43:09.449Z,5.00
2018-01-20T06:45:38.838Z,5.00
2018-01-20T06:48:08.225Z,5.00
2018-01-20T06:50:37.586Z,5.00
2018-01-20T06:53:07.786Z,5.00
2018-01-20T06:55:37.177Z,5.00
2018-01-20T06:58:06.598Z,4.90
2018-01-20T07:00:35.950Z,4.90
2018-01-20T07:03:05.392Z,4.90
2018-01-20T07:05:34.773Z,4.80
2018-01-20T07:08:04.177Z,4.70
2018-01-20T07:10:33.558Z,4.70
2018-01-20T07:13:02.984Z,4.70
2018-01-20T07:15:32.348Z,4.70
2018-01-20T07:18:04.378Z,4.70
2018-01-20T07:20:34.581Z,4.70
2018-01-20T07:23:04.822Z,4.70
2018-01-20T07:25:35.062Z,4.70
2018-01-20T07:28:04.652Z,4.70
2018-01-20T07:30:34.014Z,4.70
2018-01-20T07:33:03.434Z,4.70
2018-01-20T07:35:32.864Z,4.70
2018-01-20T07:38:02.321Z,4.70
2018-01-20T07:40:31.698Z,4.80
2018-01-20T07:43:01.138Z,4.90
2018-01-20T07:45:30.594Z,4.90
2018-01-20T07:48:00.044Z,4.90
2018-01-20T07:50:29.417Z,5.00
2018-01-20T07:52:58.834Z,4.90
2018-01-20T07:55:28.209Z,4.90
2018-01-20T07:57:58.408Z,4.80
2018-01-20T08:00:27.830Z,4.80
2018-01-20T08:02:57.243Z,4.90
2018-01-20T08:05:26.642Z,4.90
2018-01-20T08:07:56.774Z,4.90
2018-01-20T08:10:26.150Z,4.90
2018-01-20T08:12:55.520Z,5.00
2018-01-20T08:15:24.950Z,5.10
2018-01-20T08:17:54.317Z,5.10
2018-01-20T08:20:24.472Z,5.10
2018-01-20T08:22:53.855Z,5.00
2018-01-20T08:25:25.279Z,5.00
2018-01-20T08:27:56.709Z,5.00
2018-01-20T08:30:26.393Z,5.10
2018-01-20T08:32:55.907Z,5.20
2018-01-20T08:35:26.067Z,5.30
2018-01-20T08:37:55.482Z,5.20
2018-01-20T08:40:24.837Z,5.20
2018-01-20T08:42:54.210Z,5.30
2018-01-20T08:45:23.610Z,5.30
2018-01-20T08:47:53.014Z,5.30
2018-01-20T08:50:22.446Z,5.30
2018-01-20T08:52:51.861Z,5.40
2018-01-20T08:55:21.292Z,5.40
2018-01-20T08:57:50.684Z,5.30
2018-01-20T09:00:20.082Z,5.40
2018-01-20T09:02:49.506Z,5.30
2018-01-20T09:05:19.534Z,5.40
2018-01-20T09:07:48.898Z,5.50
2018-01-20T09:10:18.759Z,5.50
2018-01-20T09:12:48.137Z,5.50
2018-01-20T09:15:18.755Z,5.40
2018-01-20T09:17:48.169Z,5.30
2018-01-20T09:20:17.579Z,5.40
2018-01-20T09:22:46.937Z,5.30
2018-01-20T09:25:16.394Z,5.30
2018-01-20T09:27:46.549Z,5.30
2018-01-20T09:30:17.220Z,5.30
2018-01-20T09:32:47.406Z,5.30
2018-01-20T09:35:17.581Z,5.40
2018-01-20T09:37:46.958Z,5.40
2018-01-20T09:40:16.357Z,5.40
2018-01-20T09:42:45.847Z,5.50
2018-01-20T09:45:15.985Z,5.60
2018-01-20T09:47:46.158Z,5.70
2018-01-20T09:50:15.591Z,5.70
2018-01-20T09:52:45.097Z,5.80
2018-01-20T09:55:14.520Z,5.70
2018-01-20T09:57:43.988Z,5.70
2018-01-20T10:00:13.345Z,5.70
2018-01-20T10:02:42.780Z,5.80
2018-01-20T10:05:12.204Z,5.80
2018-01-20T10:07:41.688Z,5.80
2018-01-20T10:10:11.063Z,5.70
2018-01-20T10:12:40.546Z,5.70
2018-01-20T10:15:09.940Z,5.80
2018-01-20T10:17:41.251Z,5.80
2018-01-20T10:20:10.658Z,5.80
2018-01-20T10:22:40.061Z,5.80
2018-01-20T10:25:09.434Z,5.90
2018-01-20T10:27:38.838Z,5.80
2018-01-20T10:30:08.257Z,5.70
2018-01-20T10:32:37.711Z,5.70
2018-01-20T10:35:07.207Z,5.80
2018-01-20T10:37:36.649Z,5.90
2018-01-20T10:40:06.045Z,6.00
2018-01-20T10:42:35.461Z,6.00
2018-01-20T10:45:04.860Z,6.00
2018-01-20T10:47:34.314Z,5.90
2018-01-20T10:50:03.738Z,5.90
2018-01-20T10:52:33.162Z,6.00
2018-01-20T10:55:02.711Z,6.00
2018-01-20T10:57:32.192Z,6.10
2018-01-20T11:00:01.598Z,6.10
2018-01-20T11:02:31.129Z,6.00
2018-01-20T11:05:04.268Z,6.00
2018-01-20T11:07:33.688Z,6.10
2018-01-20T11:10:03.109Z,6.20
2018-01-20T11:12:32.632Z,6.20
2018-01-20T11:15:02.094Z,6.30
2018-01-20T11:17:31.490Z,6.30
2018-01-20T11:20:02.363Z,6.40
2018-01-20T11:22:31.978Z,6.40
2018-01-20T11:30:08.816Z,6.30
2018-01-20T11:32:38.207Z,6.40
2018-01-20T11:35:07.629Z,6.40
2018-01-20T11:37:37.056Z,6.40
2018-01-20T11:40:06.484Z,6.40
2018-01-20T11:42:35.961Z,6.50
2018-01-20T11:45:05.306Z,6.60
2018-01-20T11:47:34.736Z,6.60
2018-01-20T11:50:04.174Z,6.40
2018-01-20T11:52:33.642Z,6.30
2018-01-20T11:55:03.069Z,6.30
2018-01-20T11:57:32.473Z,6.50
2018-01-20T12:00:01.887Z,6.50
2018-01-20T12:02:31.312Z,6.50
2018-01-20T12:05:00.755Z,6.60
2018-01-20T12:07:30.142Z,6.60
2018-01-20T12:09:59.686Z,6.70
2018-01-20T12:12:29.070Z,6.70
2018-01-20T12:14:58.442Z,6.60
2018-01-20T12:17:28.736Z,6.50
2018-01-20T12:19:58.158Z,6.50
2018-01-20T12:22:28.308Z,6.60
2018-01-20T12:24:57.697Z,6.60
2018-01-20T12:27:27.830Z,6.60
2018-01-20T12:29:57.297Z,6.60
2018-01-20T12:32:27.354Z,6.60
2018-01-20T12:34:56.732Z,6.60
2018-01-20T12:37:26.853Z,6.50
2018-01-20T12:39:57.043Z,6.40
2018-01-20T12:42:26.418Z,6.40
2018-01-20T12:44:56.471Z,6.50
2018-01-20T12:47:25.904Z,6.50
2018-01-20T12:49:56.090Z,6.40
2018-01-20T12:52:25.539Z,6.40
2018-01-20T12:54:54.945Z,6.40
2018-01-20T12:57:24.346Z,6.40
2018-01-20T12:59:53.737Z,6.40
2018-01-20T13:02:23.894Z,6.30
2018-01-20T13:04:53.254Z,6.30
2018-01-20T13:07:22.616Z,6.30
2018-01-20T13:09:52.008Z,6.30
2018-01-20T13:12:21.390Z,6.40
2018-01-20T13:14:50.790Z,6.40
2018-01-20T13:17:20.158Z,6.50
2018-01-20T13:19:50.335Z,6.30
2018-01-20T13:22:19.708Z,6.30
2018-01-20T13:24:49.121Z,6.40
2018-01-20T13:27:18.533Z,6.40
2018-01-20T13:29:47.952Z,6.30
2018-01-20T13:32:17.307Z,6.20
2018-01-20T13:34:46.674Z,6.20
2018-01-20T13:37:16.057Z,6.20
2018-01-20T13:39:46.197Z,6.20
2018-01-20T13:42:15.634Z,6.10
2018-01-20T13:44:45.026Z,6.20
2018-01-20T13:47:15.196Z,6.30
2018-01-20T13:49:44.562Z,6.30
2018-01-20T13:52:14.783Z,6.10
2018-01-20T13:54:44.157Z,6.00
2018-01-20T13:57:13.541Z,6.10
2018-01-20T13:59:42.927Z,6.10
2018-01-20T14:02:12.292Z,6.10
2018-01-20T14:04:42.452Z,6.20
2018-01-20T14:07:11.831Z,6.20
2018-01-20T14:09:42.030Z,6.00
2018-01-20T14:12:12.184Z,5.90
2018-01-20T14:14:41.592Z,5.90
2018-01-20T14:17:10.980Z,5.80
2018-01-20T14:19:41.139Z,5.80
2018-01-20T14:22:10.542Z,5.80
2018-01-20T14:24:39.946Z,5.70
2018-01-20T14:27:09.372Z,5.70
2018-01-20T14:29:38.749Z,5.70
2018-01-20T14:32:08.153Z,5.70
2018-01-20T14:34:37.666Z,5.70
2018-01-20T14:37:07.078Z,5.70
2018-01-20T14:39:36.546Z,5.80
2018-01-20T14:42:05.974Z,5.80
2018-01-20T14:44:35.380Z,5.70
2018-01-20T14:47:04.769Z,5.80
2018-01-20T14:49:34.242Z,5.80
2018-01-20T14:52:03.676Z,5.80
2018-01-20T14:54:33.992Z,5.90
2018-01-20T14:57:03.398Z,5.90
2018-01-20T14:59:32.826Z,5.90
2018-01-20T15:02:02.272Z,5.90
2018-01-20T15:04:31.688Z,5.90
2018-01-20T15:07:01.122Z,5.80
2018-01-20T15:09:30.548Z,5.80
2018-01-20T15:11:59.986Z,5.80
2018-01-20T15:14:29.364Z,5.80
2018-01-20T15:16:59.556Z,5.70
2018-01-20T15:19:29.008Z,5.70
2018-01-20T15:21:58.396Z,5.70
2018-01-20T15:24:28.564Z,5.60
2018-01-20T15:26:57.973Z,5.50
2018-01-20T15:29:27.397Z,5.50
2018-01-20T15:31:56.838Z,5.50
2018-01-20T15:34:26.283Z,5.50
2018-01-20T15:36:55.752Z,5.60
2018-01-20T15:39:25.232Z,5.50
2018-01-20T15:41:55.447Z,5.50
2018-01-20T15:44:25.655Z,5.50
2018-01-20T15:46:55.042Z,5.50
2018-01-20T15:49:24.501Z,5.50
2018-01-20T15:51:53.902Z,5.40
2018-01-20T15:54:23.282Z,5.40
2018-01-20T15:56:52.907Z,5.40
2018-01-20T15:59:22.359Z,5.40
2018-01-20T16:01:51.787Z,5.30
2018-01-20T16:04:21.212Z,5.30
2018-01-20T16:06:50.663Z,5.30
2018-01-20T16:09:20.113Z,5.20
2018-01-20T16:11:50.282Z,5.30
2018-01-20T16:14:19.740Z,5.20
2018-01-20T16:16:49.910Z,5.40
2018-01-20T16:19:19.353Z,5.40
2018-01-20T16:21:48.761Z,5.40
2018-01-20T16:24:18.177Z,5.40
2018-01-20T16:26:47.903Z,5.40
2018-01-20T16:29:17.296Z,5.40
2018-01-20T16:31:47.464Z,5.30
2018-01-20T16:34:16.859Z,5.30
2018-01-20T16:36:46.249Z,5.20
2018-01-20T16:39:15.638Z,5.20
2018-01-20T16:41:45.065Z,5.20
2018-01-20T16:44:14.958Z,5.20
2018-01-20T16:46:44.371Z,5.20
2018-01-20T16:49:13.822Z,5.20
2018-01-20T16:51:43.199Z,5.10
2018-01-20T16:54:12.547Z,5.10
2018-01-20T16:56:41.950Z,5.10
2018-01-20T16:59:11.344Z,5.10
2018-01-20T17:01:41.554Z,5.10
2018-01-20T17:04:10.926Z,5.10
2018-01-20T17:06:40.343Z,5.00
2018-01-20T17:09:09.701Z,5.00
2018-01-20T17:11:39.099Z,5.10
2018-01-20T17:14:09.082Z,5.10
2018-01-20T17:16:38.445Z,5.10
2018-01-20T17:19:07.854Z,5.20
2018-01-20T17:21:37.266Z,5.20
2018-01-20T17:24:06.680Z,5.20
2018-01-20T17:26:36.082Z,5.20
2018-01-20T17:29:05.514Z,5.20
2018-01-20T17:31:34.882Z,5.20
2018-01-20T17:34:04.236Z,5.10
2018-01-20T17:36:33.647Z,5.10
2018-01-20T17:39:03.049Z,5.10
2018-01-20T17:41:32.577Z,5.10
2018-01-20T17:44:01.975Z,5.10
2018-01-20T17:46:31.340Z,5.20
2018-01-20T17:49:00.759Z,5.10
2018-01-20T17:51:30.198Z,5.10
2018-01-20T17:53:59.875Z,5.10
2018-01-20T17:56:29.338Z,5.10
2018-01-20T17:58:58.761Z,5.10
2018-01-20T18:01:28.905Z,5.10
2018-01-20T18:03:58.285Z,5.10
2018-01-20T18:06:27.705Z,5.20
2018-01-20T18:08:57.116Z,5.20
2018-01-20T18:11:26.512Z,5.20
2018-01-20T18:13:55.883Z,5.20
2018-01-20T18:16:26.012Z,5.30
2018-01-20T18:18:56.140Z,5.40
2018-01-20T18:21:25.531Z,5.40
2018-01-20T18:23:55.651Z,5.40
2018-01-20T18:26:25.825Z,5.40
2018-01-20T18:28:55.171Z,5.40
2018-01-20T18:31:25.324Z,5.30
2018-01-20T18:33:54.722Z,5.30
2018-01-20T18:36:24.129Z,5.20
2018-01-20T18:38:53.501Z,5.20
2018-01-20T18:41:23.656Z,5.10
2018-01-20T18:43:53.074Z,5.00
2018-01-20T18:46:22.473Z,5.00
2018-01-20T18:48:51.847Z,5.00
2018-01-20T18:51:21.216Z,4.90
2018-01-20T18:53:50.630Z,4.90
2018-01-20T18:56:21.145Z,4.90
2018-01-20T18:58:50.578Z,4.80
2018-01-20T19:01:19.951Z,4.80
2018-01-20T19:03:49.310Z,4.90
2018-01-20T19:06:18.685Z,4.90
2018-01-20T19:08:48.202Z,5.00
2018-01-20T19:11:17.593Z,5.00
2018-01-20T19:13:46.966Z,5.00
2018-01-20T19:16:16.361Z,5.00
2018-01-20T19:18:45.733Z,5.10
2018-01-20T19:21:15.152Z,5.10
2018-01-20T19:23:44.547Z,5.10
2018-01-20T19:26:13.918Z,5.00
2018-01-20T19:28:43.371Z,5.00
2018-01-20T19:31:12.742Z,4.90
2018-01-20T19:33:42.156Z,4.80
2018-01-20T19:36:12.288Z,4.80
2018-01-20T19:38:41.660Z,4.80
2018-01-20T19:41:11.038Z,4.80
2018-01-20T19:43:40.442Z,4.80
2018-01-20T19:46:09.818Z,4.80
2018-01-20T19:48:39.198Z,4.80
2018-01-20T19:51:08.586Z,4.80
2018-01-20T19:53:37.979Z,4.70
2018-01-20T19:56:08.212Z,4.80
2018-01-20T19:58:37.606Z,4.80
2018-01-20T20:01:06.969Z,4.90
2018-01-20T20:03:37.135Z,4.90
2018-01-20T20:06:06.506Z,4.90
2018-01-20T20:08:35.875Z,5.00
2018-01-20T20:11:05.236Z,5.00
2018-01-20T20:13:34.599Z,5.00
2018-01-20T20:16:04.767Z,5.10
2018-01-20T20:18:34.143Z,5.10
2018-01-20T20:21:03.497Z,5.10
2018-01-20T20:23:33.686Z,5.20
2018-01-20T20:26:03.082Z,5.10
2018-01-20T20:28:33.264Z,5.20
2018-01-20T20:31:03.393Z,5.20
2018-01-20T20:33:32.786Z,5.20
2018-01-20T20:36:02.910Z,5.20
2018-01-20T20:38:32.276Z,5.10
2018-01-20T20:41:01.660Z,5.20
2018-01-20T20:43:31.043Z,5.10
2018-01-20T20:46:00.414Z,5.20
2018-01-20T20:48:29.778Z,5.10
2018-01-20T20:50:59.158Z,5.20
2018-01-20T20:53:28.587Z,5.20
2018-01-20T20:55:58.145Z,5.20
2018-01-20T20:58:27.517Z,5.10
2018-01-20T21:00:57.675Z,5.20
2018-01-20T21:03:27.048Z,5.20
2018-01-20T21:05:57.193Z,5.30
2018-01-20T21:08:26.584Z,5.30
2018-01-20T21:10:55.930Z,5.30
2018-01-20T21:13:25.301Z,5.30
2018-01-20T21:15:54.686Z,5.30
2018-01-20T21:18:24.922Z,5.30
2018-01-20T21:20:54.308Z,5.40
2018-01-20T21:23:24.466Z,5.30
2018-01-20T21:25:53.818Z,5.30
2018-01-20T21:28:24.005Z,5.40
2018-01-20T21:30:53.376Z,5.40
2018-01-20T21:33:22.740Z,5.40
2018-01-20T21:35:52.883Z,5.30
2018-01-20T21:38:22.266Z,5.30
2018-01-20T21:40:52.407Z,5.30
2018-01-20T21:43:21.785Z,5.30
2018-01-20T21:45:51.977Z,5.20
2018-01-20T21:48:21.381Z,5.20
2018-01-20T21:50:50.773Z,5.30
2018-01-20T21:53:20.174Z,5.20
2018-01-20T21:55:49.565Z,5.20
2018-01-20T21:58:18.957Z,5.20
2018-01-20T22:00:48.324Z,5.20
2018-01-20T22:03:17.709Z,5.10
2018-01-20T22:05:47.077Z,5.10
2018-01-20T22:08:16.471Z,5.00
2018-01-20T22:10:45.837Z,5.10
2018-01-20T22:13:15.974Z,5.00
2018-01-20T22:15:45.335Z,5.10
2018-01-20T22:18:14.685Z,5.10
2018-01-20T22:20:44.050Z,5.10
2018-01-20T22:23:13.410Z,5.00
2018-01-20T22:25:42.818Z,5.10
2018-01-20T22:28:12.241Z,5.10
2018-01-20T22:30:41.585Z,5.00
2018-01-20T22:33:11.121Z,5.00
2018-01-20T22:35:40.474Z,5.10
2018-01-20T22:38:10.593Z,5.00
2018-01-20T22:40:40.715Z,5.00
2018-01-20T22:43:10.094Z,5.00
2018-01-20T22:45:39.465Z,4.90
2018-01-20T22:48:08.873Z,4.90
2018-01-20T22:50:38.268Z,4.80
2018-01-20T22:53:07.640Z,4.70
2018-01-20T22:55:37.040Z,4.70
2018-01-20T22:58:06.394Z,4.70
2018-01-20T23:00:36.647Z,4.70
2018-01-20T23:03:06.819Z,4.50
2018-01-20T23:05:36.972Z,4.50
2018-01-20T23:08:06.350Z,4.50
2018-01-20T23:10:35.745Z,4.60
2018-01-20T23:13:05.133Z,4.50
2018-01-20T23:15:34.511Z,4.50
2018-01-20T23:18:03.858Z,4.60
2018-01-20T23:20:33.235Z,4.50
2018-01-20T23:23:02.602Z,4.50
2018-01-20T23:25:31.980Z,4.50
2018-01-20T23:28:01.377Z,4.40
2018-01-20T23:30:30.797Z,4.40
2018-01-20T23:33:00.788Z,4.30
2018-01-20T23:35:30.170Z,4.40
2018-01-20T23:37:59.548Z,4.30
2018-01-20T23:40:28.912Z,4.30
2018-01-20T23:42:58.934Z,4.30
2018-01-20T23:45:28.309Z,4.30
2018-01-20T23:47:57.701Z,4.30
2018-01-20T23:50:27.105Z,4.20
2018-01-20T23:52:56.475Z,4.20
2018-01-20T23:55:26.628Z,4.10
2018-01-20T23:57:55.983Z,4.10
